createdAt,value
2023-10-02T00:01:10.350Z,9.40
2023-10-02T00:03:41.459Z,9.63
2023-10-02T00:06:11.071Z,9.43
2023-10-02T00:08:53.493Z,9.52
2023-10-02T00:11:42.764Z,8.77
2023-10-02T00:14:22.450Z,8.98
2023-10-02T00:17:02.642Z,10.40
2023-10-02T00:19:29.700Z,10.80
2023-10-02T00:22:00.986Z,9.15
2023-10-02T00:24:33.326Z,9.63
2023-10-02T00:27:00.113Z,10.00
2023-10-02T00:29:27.876Z,9.10
2023-10-02T00:31:54.837Z,8.60
2023-10-02T00:34:33.517Z,9.05
2023-10-02T00:37:01.638Z,7.43
2023-10-02T00:39:32.731Z,7.70
2023-10-02T00:42:17.536Z,9.35
2023-10-02T00:44:58.667Z,11.55
2023-10-02T00:47:48.666Z,7.57
2023-10-02T00:50:22.819Z,8.60
2023-10-02T00:52:49.397Z,9.00
2023-10-02T00:55:21.585Z,10.57
2023-10-02T00:57:52.006Z,11.57
2023-10-02T01:00:32.459Z,8.88
2023-10-02T01:03:13.461Z,10.68
2023-10-02T01:05:43.220Z,9.45
2023-10-02T01:08:26.117Z,10.90
2023-10-02T01:11:00.466Z,12.60
2023-10-02T01:13:30.485Z,11.07
2023-10-02T01:15:57.884Z,10.05
2023-10-02T01:18:28.983Z,10.98
2023-10-02T01:21:00.678Z,10.27
2023-10-02T01:23:28.701Z,12.82
2023-10-02T01:26:01.498Z,13.65
2023-10-02T01:28:50.670Z,11.63
2023-10-02T01:31:33.600Z,11.25
2023-10-02T01:34:00.725Z,12.25
2023-10-02T01:36:32.036Z,13.25
2023-10-02T01:39:17.470Z,14.15
2023-10-02T01:41:50.244Z,15.18
2023-10-02T01:44:21.589Z,13.18
2023-10-02T01:46:51.216Z,16.63
2023-10-02T01:49:28.909Z,15.18
2023-10-02T01:52:09.108Z,13.88
2023-10-02T01:54:36.771Z,15.95
2023-10-02T01:57:05.996Z,15.05
2023-10-02T01:59:32.792Z,16.27
2023-10-02T02:02:00.313Z,19.08
2023-10-02T02:04:32.273Z,17.20
2023-10-02T02:06:59.287Z,19.30
2023-10-02T02:09:33.666Z,16.70
2023-10-02T02:12:07.422Z,18.20
2023-10-02T02:14:51.910Z,15.05
2023-10-02T02:17:21.091Z,17.40
2023-10-02T02:19:50.282Z,15.52
2023-10-02T02:22:20.577Z,16.17
2023-10-02T02:24:48.873Z,17.50
2023-10-02T02:27:16.462Z,17.05
2023-10-02T02:29:44.438Z,16.35
2023-10-02T02:32:14.274Z,15.07
2023-10-02T02:34:41.717Z,12.82
2023-10-02T02:37:10.118Z,16.33
2023-10-02T02:39:40.158Z,14.30
2023-10-02T02:42:10.411Z,16.30
2023-10-02T02:44:41.363Z,15.98
2023-10-02T02:47:09.469Z,17.30
2023-10-02T02:49:50.072Z,16.65
2023-10-02T02:52:26.630Z,15.63
2023-10-02T02:55:00.668Z,16.42
2023-10-02T02:57:27.745Z,15.45
2023-10-02T03:00:16.557Z,14.80
2023-10-02T03:02:45.898Z,19.63
2023-10-02T03:05:12.624Z,16.30
2023-10-02T03:07:40.656Z,18.77
2023-10-02T03:10:14.230Z,16.77
2023-10-02T03:12:49.421Z,16.63
2023-10-02T03:15:19.173Z,20.77
2023-10-02T03:17:50.286Z,21.67
2023-10-02T03:20:26.168Z,18.60
2023-10-02T03:22:55.030Z,16.63
2023-10-02T03:28:29.590Z,18.05
2023-10-02T03:30:56.318Z,18.42
2023-10-02T03:36:28.960Z,17.83
2023-10-02T03:42:12.506Z,15.50
2023-10-02T03:44:38.994Z,16.60
2023-10-02T03:47:05.639Z,16.42
2023-10-02T03:49:35.123Z,17.35
2023-10-02T03:52:04.534Z,13.38
2023-10-02T03:54:31.169Z,11.40
2023-10-02T03:56:58.033Z,12.48
2023-10-02T03:59:27.991Z,12.30
2023-10-02T04:01:55.339Z,11.13
2023-10-02T04:04:22.940Z,12.68
2023-10-02T04:06:54.611Z,11.35
2023-10-02T04:09:22.433Z,10.73
2023-10-02T04:11:52.270Z,8.98
2023-10-02T04:14:19.902Z,9.18
2023-10-02T04:16:49.117Z,7.60
2023-10-02T04:21:46.858Z,8.30
2023-10-02T04:24:13.619Z,11.18
2023-10-02T04:26:43.343Z,10.95
2023-10-02T04:29:28.060Z,12.23
2023-10-02T04:32:15.706Z,10.35
2023-10-02T04:34:52.121Z,10.60
2023-10-02T04:37:24.897Z,13.52
2023-10-02T04:39:58.027Z,12.07
2023-10-02T04:42:30.152Z,12.15
2023-10-02T04:44:59.309Z,13.07
2023-10-02T04:50:06.925Z,11.35
2023-10-02T04:52:53.668Z,13.98
2023-10-02T04:55:26.519Z,10.80
2023-10-02T04:57:55.676Z,12.90
2023-10-02T05:00:29.255Z,17.00
2023-10-02T05:03:31.870Z,16.33
2023-10-02T05:06:04.566Z,15.60
2023-10-02T05:08:36.932Z,15.07
2023-10-02T05:11:07.828Z,14.60
2023-10-02T05:13:53.616Z,14.45
2023-10-02T05:16:36.674Z,15.07
2023-10-02T05:19:06.900Z,15.88
2023-10-02T05:21:52.459Z,14.77
2023-10-02T05:24:19.969Z,13.52
2023-10-02T05:26:47.877Z,16.52
2023-10-02T05:29:19.022Z,13.30
2023-10-02T05:31:46.763Z,14.15
2023-10-02T05:34:40.275Z,14.13
2023-10-02T05:37:14.281Z,11.93
2023-10-02T05:39:41.548Z,15.95
2023-10-02T05:42:09.674Z,12.20
2023-10-02T05:44:36.657Z,12.52
2023-10-02T05:47:07.130Z,15.23
2023-10-02T05:49:34.447Z,15.18
2023-10-02T05:52:04.473Z,15.82
2023-10-02T05:54:31.050Z,16.23
2023-10-02T05:57:09.988Z,20.33
2023-10-02T06:03:02.650Z,18.05
2023-10-02T06:05:31.054Z,18.20
2023-10-02T06:08:00.783Z,22.73
2023-10-02T06:10:31.849Z,21.95
2023-10-02T06:25:19.376Z,20.73
2023-10-02T06:27:48.354Z,26.50
2023-10-02T06:30:17.924Z,25.40
2023-10-02T06:32:56.742Z,21.83
2023-10-02T06:35:23.527Z,19.45
2023-10-02T06:37:50.485Z,18.98
2023-10-02T06:40:17.674Z,18.83
2023-10-02T06:42:51.090Z,17.70
2023-10-02T06:45:26.392Z,22.55
2023-10-02T06:47:52.955Z,23.63
2023-10-02T06:50:32.764Z,22.98
2023-10-02T06:53:00.307Z,22.85
2023-10-02T06:55:27.823Z,20.70
2023-10-02T06:57:54.930Z,23.08
2023-10-02T07:00:22.552Z,20.30
2023-10-02T07:02:58.499Z,23.45
2023-10-02T07:05:28.606Z,20.25
2023-10-02T07:08:02.540Z,22.90
2023-10-02T07:10:42.629Z,19.75
2023-10-02T07:13:22.108Z,22.85
2023-10-02T07:15:49.384Z,21.33
2023-10-02T07:18:16.368Z,16.45
2023-10-02T07:20:50.483Z,22.17
2023-10-02T07:23:20.801Z,20.70
2023-10-02T07:25:56.754Z,24.48
2023-10-02T07:28:23.281Z,21.85
2023-10-02T07:30:53.516Z,19.38
2023-10-02T07:33:20.944Z,23.63
2023-10-02T07:35:57.276Z,25.95
2023-10-02T07:38:44.354Z,20.95
2023-10-02T07:41:28.419Z,18.30
2023-10-02T07:44:17.172Z,17.70
2023-10-02T07:46:44.802Z,20.45
2023-10-02T07:49:11.543Z,17.83
2023-10-02T07:51:38.379Z,20.33
2023-10-02T07:54:05.607Z,18.45
2023-10-02T07:56:33.960Z,18.05
2023-10-02T07:59:04.559Z,18.27
2023-10-02T08:01:35.267Z,19.58
2023-10-02T08:04:03.656Z,22.15
2023-10-02T08:06:38.939Z,20.70
2023-10-02T08:09:27.485Z,24.25
2023-10-02T08:11:55.525Z,26.75
2023-10-02T08:14:36.316Z,23.30
2023-10-02T08:17:10.073Z,24.17
2023-10-02T08:19:37.642Z,22.60
2023-10-02T08:22:07.288Z,25.45
2023-10-02T08:24:39.262Z,22.35
2023-10-02T08:27:06.056Z,22.40
2023-10-02T08:29:33.878Z,22.55
2023-10-02T08:32:00.727Z,21.33
2023-10-02T08:34:28.340Z,19.63
2023-10-02T08:37:14.166Z,22.08
2023-10-02T08:39:41.306Z,21.58
2023-10-02T08:42:11.301Z,21.52
2023-10-02T08:44:42.541Z,21.38
2023-10-02T08:47:13.719Z,22.73
2023-10-02T08:49:40.942Z,21.63
2023-10-02T08:52:13.420Z,20.58
2023-10-02T08:54:47.608Z,20.67
2023-10-02T08:57:14.330Z,18.60
2023-10-02T08:59:42.107Z,16.25
2023-10-02T09:02:15.681Z,18.45
2023-10-02T09:04:53.255Z,20.08
2023-10-02T09:07:23.593Z,18.27
2023-10-02T09:10:05.118Z,21.42
2023-10-02T09:12:31.641Z,19.58
2023-10-02T09:15:31.291Z,14.98
2023-10-02T09:17:59.778Z,14.13
2023-10-02T09:20:40.263Z,14.90
2023-10-02T09:23:11.142Z,18.60
2023-10-02T09:25:38.930Z,16.50
2023-10-02T09:28:14.389Z,14.35
2023-10-02T09:30:43.758Z,15.50
2023-10-02T09:33:36.458Z,15.55
2023-10-02T09:36:22.961Z,15.68
2023-10-02T09:39:19.791Z,15.70
2023-10-02T09:41:47.892Z,15.88
2023-10-02T09:44:22.976Z,17.17
2023-10-02T09:46:53.532Z,15.82
2023-10-02T09:49:25.104Z,16.83
2023-10-02T09:52:13.559Z,16.77
2023-10-02T09:54:42.468Z,15.32
2023-10-02T09:57:14.332Z,13.60
2023-10-02T09:59:48.074Z,17.50
2023-10-02T10:02:21.816Z,12.55
2023-10-02T10:05:14.591Z,14.60
2023-10-02T10:07:53.639Z,12.43
2023-10-02T10:10:50.924Z,11.23
2023-10-02T10:13:33.250Z,14.57
2023-10-02T10:16:30.932Z,12.57
2023-10-02T10:19:06.511Z,10.05
2023-10-02T10:21:58.672Z,9.48
2023-10-02T10:24:52.311Z,10.95
2023-10-02T10:27:37.584Z,13.82
2023-10-02T10:30:36.729Z,12.25
2023-10-02T10:33:09.549Z,13.35
2023-10-02T10:35:37.506Z,10.23
2023-10-02T10:38:38.072Z,13.60
2023-10-02T10:41:16.085Z,9.77
2023-10-02T10:43:57.794Z,11.55
2023-10-02T10:46:25.614Z,9.68
2023-10-02T10:49:00.995Z,12.65
2023-10-02T10:51:35.227Z,11.70
2023-10-02T10:54:22.801Z,13.95
2023-10-02T10:57:20.847Z,11.95
2023-10-02T10:59:48.167Z,13.75
2023-10-02T11:02:16.753Z,11.60
2023-10-02T11:04:50.527Z,12.55
2023-10-02T11:07:21.060Z,13.63
2023-10-02T11:10:25.928Z,11.60
2023-10-02T11:12:58.925Z,11.05
2023-10-02T11:15:46.276Z,15.85
2023-10-02T11:18:20.307Z,16.42
2023-10-02T11:20:50.625Z,15.07
2023-10-02T11:23:24.529Z,14.82
2023-10-02T11:25:51.856Z,15.30
2023-10-02T11:28:28.629Z,16.10
2023-10-02T11:31:12.677Z,17.08
2023-10-02T11:33:41.591Z,14.55
2023-10-02T11:36:12.737Z,16.63
2023-10-02T11:38:39.927Z,17.27
2023-10-02T11:41:06.916Z,17.00
2023-10-02T11:43:35.562Z,20.00
2023-10-02T11:46:02.381Z,14.45
2023-10-02T11:48:29.028Z,18.35
2023-10-02T11:50:56.709Z,17.25
2023-10-02T11:53:23.246Z,14.88
2023-10-02T11:55:51.322Z,15.70
2023-10-02T11:58:17.861Z,16.23
2023-10-02T12:00:46.361Z,15.50
2023-10-02T12:03:15.331Z,23.13
2023-10-02T12:05:42.044Z,17.92
2023-10-02T12:08:08.829Z,16.75
2023-10-02T12:10:35.704Z,17.92
2023-10-02T12:13:03.540Z,15.77
2023-10-02T12:15:30.443Z,16.55
2023-10-02T12:17:57.493Z,20.73
2023-10-02T12:20:24.572Z,17.75
2023-10-02T12:22:52.305Z,17.67
2023-10-02T12:25:18.857Z,19.40
2023-10-02T12:27:45.539Z,18.38
2023-10-02T12:30:12.703Z,20.73
2023-10-02T12:32:39.855Z,16.05
2023-10-02T12:35:06.936Z,19.25
2023-10-02T12:37:33.547Z,15.35
2023-10-02T12:40:00.201Z,20.17
2023-10-02T12:42:27.255Z,17.67
2023-10-02T12:44:55.358Z,18.80
2023-10-02T12:47:25.079Z,17.30
2023-10-02T12:49:55.744Z,15.80
2023-10-02T12:52:24.551Z,16.75
2023-10-02T12:54:51.087Z,17.27
2023-10-02T12:57:17.698Z,21.02
2023-10-02T12:59:45.103Z,20.52
2023-10-02T13:02:11.809Z,21.98
2023-10-02T13:04:38.859Z,20.25
2023-10-02T13:07:06.301Z,16.20
2023-10-02T13:09:34.422Z,21.85
2023-10-02T13:12:01.890Z,17.83
2023-10-02T13:14:57.408Z,19.85
2023-10-02T13:17:24.035Z,19.35
2023-10-02T13:19:51.145Z,16.55
2023-10-02T13:22:17.726Z,23.40
2023-10-02T13:24:44.401Z,22.67
2023-10-02T13:27:10.828Z,19.75
2023-10-02T13:29:37.885Z,22.13
2023-10-02T13:32:06.608Z,20.98
2023-10-02T13:34:33.291Z,24.30
2023-10-02T13:37:00.513Z,25.17
2023-10-02T13:39:28.171Z,18.20
2023-10-02T13:41:54.831Z,21.25
2023-10-02T13:44:22.353Z,23.02
2023-10-02T13:46:52.425Z,24.95
2023-10-02T13:49:20.818Z,25.30
2023-10-02T13:51:47.753Z,21.65
2023-10-02T13:54:14.384Z,22.27
2023-10-02T13:56:41.310Z,21.25
2023-10-02T13:59:07.934Z,24.50
2023-10-02T14:01:35.300Z,25.45
2023-10-02T14:04:05.023Z,22.85
2023-10-02T14:06:31.629Z,20.98
2023-10-02T14:08:58.649Z,21.13
2023-10-02T14:11:26.895Z,10.48
2023-10-02T14:13:58.721Z,8.80
2023-10-02T14:16:27.517Z,8.40
2023-10-02T14:18:55.483Z,6.63
2023-10-02T14:21:23.098Z,7.68
2023-10-02T14:23:53.698Z,9.43
2023-10-02T14:26:21.581Z,7.03
2023-10-02T14:28:48.270Z,9.95
2023-10-02T14:31:23.924Z,6.72
2023-10-02T14:33:50.693Z,8.13
2023-10-02T14:36:17.281Z,5.85
2023-10-02T14:38:43.799Z,7.13
2023-10-02T14:41:10.764Z,6.18
2023-10-02T14:43:37.859Z,7.35
2023-10-02T14:46:05.618Z,7.63
2023-10-02T14:48:47.004Z,6.53
2023-10-02T14:51:15.121Z,13.10
2023-10-02T14:53:42.164Z,10.60
2023-10-02T14:56:09.232Z,7.93
2023-10-02T14:58:42.298Z,9.38
2023-10-02T15:01:14.359Z,7.00
2023-10-02T15:03:41.766Z,9.85
2023-10-02T15:06:13.336Z,9.50
2023-10-02T15:08:40.627Z,10.70
2023-10-02T15:11:07.714Z,12.48
2023-10-02T15:13:35.009Z,12.90
2023-10-02T15:16:01.747Z,12.73
2023-10-02T15:18:28.348Z,14.68
2023-10-02T15:20:56.704Z,17.98
2023-10-02T15:23:23.742Z,14.65
2023-10-02T15:25:52.565Z,16.10
2023-10-02T15:28:20.563Z,19.33
2023-10-02T15:30:47.284Z,22.98
2023-10-02T15:33:13.992Z,20.85
2023-10-02T15:35:40.980Z,22.25
2023-10-02T15:38:09.102Z,26.25
2023-10-02T15:40:37.815Z,23.65
2023-10-02T15:43:04.842Z,24.65
2023-10-02T15:45:32.991Z,23.27
2023-10-02T15:47:59.935Z,21.73
2023-10-02T15:50:28.194Z,22.85
2023-10-02T15:52:55.534Z,24.02
2023-10-02T15:55:22.643Z,21.52
2023-10-02T15:57:50.297Z,21.23
2023-10-02T16:00:24.116Z,23.55
2023-10-02T16:02:52.460Z,18.00
2023-10-02T16:05:19.679Z,18.10
2023-10-02T16:07:50.275Z,15.98
2023-10-02T16:10:17.700Z,13.52
2023-10-02T16:12:47.229Z,14.18
2023-10-02T16:15:24.833Z,14.23
2023-10-02T16:17:56.215Z,14.48
2023-10-02T16:20:24.001Z,12.63
2023-10-02T16:22:52.079Z,11.55
2023-10-02T16:25:20.446Z,8.30
2023-10-02T16:27:49.207Z,9.15
2023-10-02T16:30:16.605Z,10.37
2023-10-02T16:32:49.890Z,5.95
2023-10-02T16:35:17.648Z,8.50
2023-10-02T16:37:44.588Z,10.32
2023-10-02T16:40:23.920Z,8.60
2023-10-02T16:42:53.469Z,10.30
2023-10-02T16:47:50.867Z,5.40
2023-10-02T16:50:20.638Z,6.63
2023-10-02T16:52:48.930Z,7.85
2023-10-02T16:55:19.931Z,5.30
2023-10-02T16:57:51.929Z,5.38
2023-10-02T17:00:22.040Z,5.05
2023-10-02T17:02:50.020Z,4.85
2023-10-02T17:05:20.751Z,6.13
2023-10-02T17:07:48.278Z,8.20
2023-10-02T17:10:17.668Z,4.85
2023-10-02T17:12:45.468Z,4.97
2023-10-02T17:15:13.702Z,5.88
2023-10-02T17:17:42.882Z,5.03
2023-10-02T17:20:10.805Z,8.45
2023-10-02T17:22:41.017Z,6.53
2023-10-02T17:25:12.677Z,5.63
2023-10-02T17:27:40.534Z,7.80
2023-10-02T17:30:07.767Z,5.72
2023-10-02T17:32:34.786Z,5.45
2023-10-02T17:35:02.115Z,8.60
2023-10-02T17:37:28.716Z,6.38
2023-10-02T17:39:55.223Z,7.53
2023-10-02T17:42:22.078Z,8.20
2023-10-02T17:44:51.324Z,7.32
2023-10-02T17:47:18.005Z,6.60
2023-10-02T17:49:44.821Z,8.35
2023-10-02T17:52:12.996Z,11.52
2023-10-02T17:54:42.702Z,10.23
2023-10-02T17:57:14.413Z,14.70
2023-10-02T17:59:41.743Z,17.83
2023-10-02T18:02:25.086Z,18.45
2023-10-02T18:04:54.481Z,22.35
2023-10-02T18:07:21.590Z,24.88
2023-10-02T18:09:51.685Z,29.20
2023-10-02T18:12:18.573Z,31.20
2023-10-02T18:14:45.235Z,35.80
2023-10-02T18:17:13.342Z,36.42
2023-10-02T18:19:40.094Z,33.80
2023-10-02T18:22:07.258Z,36.47
2023-10-02T18:24:33.905Z,39.08
2023-10-02T18:27:01.047Z,35.40
2023-10-02T18:29:30.034Z,31.88
2023-10-02T18:34:40.104Z,36.83
2023-10-02T18:37:10.142Z,36.58
2023-10-02T18:39:36.647Z,39.17
2023-10-02T18:42:05.155Z,40.00
2023-10-02T18:44:44.414Z,36.55
2023-10-02T18:47:14.102Z,37.60
2023-10-02T18:49:40.661Z,37.17
2023-10-02T18:52:08.013Z,37.00
2023-10-02T18:54:35.578Z,35.20
2023-10-02T18:57:02.422Z,36.53
2023-10-02T18:59:29.132Z,45.25
2023-10-02T19:01:55.831Z,41.08
2023-10-02T19:04:22.718Z,37.35
2023-10-02T19:06:49.468Z,36.08
2023-10-02T19:09:18.972Z,40.55
2023-10-02T19:11:48.559Z,39.92
2023-10-02T19:14:15.413Z,33.47
2023-10-02T19:16:42.470Z,39.95
2023-10-02T19:19:09.064Z,40.38
2023-10-02T19:21:36.388Z,39.15
2023-10-02T19:24:03.920Z,39.63
2023-10-02T19:26:33.745Z,33.42
2023-10-02T19:29:04.135Z,41.60
2023-10-02T19:31:31.474Z,41.80
2023-10-02T19:33:58.295Z,35.10
2023-10-02T19:36:24.943Z,38.45
2023-10-02T19:38:51.700Z,43.45
2023-10-02T19:41:21.549Z,37.60
2023-10-02T19:43:53.850Z,37.78
2023-10-02T19:46:20.816Z,36.75
2023-10-02T19:48:48.739Z,35.10
2023-10-02T19:51:16.107Z,34.53
2023-10-02T19:53:43.077Z,34.95
2023-10-02T19:56:10.897Z,41.58
2023-10-02T19:58:37.610Z,38.13
2023-10-02T20:01:05.828Z,35.17
2023-10-02T20:03:32.991Z,34.37
2023-10-02T20:06:02.753Z,33.55
2023-10-02T20:08:29.470Z,37.05
2023-10-02T20:11:01.383Z,33.67
2023-10-02T20:13:28.510Z,39.13
2023-10-02T20:15:55.453Z,33.33
2023-10-02T20:18:22.868Z,38.15
2023-10-02T20:20:49.763Z,37.80
2023-10-02T20:23:19.282Z,39.08
2023-10-02T20:29:15.200Z,36.65
2023-10-02T20:31:44.304Z,34.80
2023-10-02T20:36:46.122Z,34.33
2023-10-02T20:39:17.313Z,38.92
2023-10-02T20:41:46.041Z,35.35
2023-10-02T20:44:14.805Z,33.25
2023-10-02T20:46:45.660Z,37.95
2023-10-02T20:49:17.182Z,36.40
2023-10-02T20:51:44.987Z,35.72
2023-10-02T20:54:35.276Z,44.38
2023-10-02T20:57:40.154Z,38.45
2023-10-02T21:00:08.610Z,36.15
2023-10-02T21:02:35.184Z,38.88
2023-10-02T21:05:01.910Z,37.63
2023-10-02T21:07:28.480Z,38.13
2023-10-02T21:09:55.057Z,40.45
2023-10-02T21:12:22.951Z,38.95
2023-10-02T21:14:52.714Z,40.42
2023-10-02T21:17:19.225Z,39.55
2023-10-02T21:19:45.657Z,37.58
2023-10-02T21:22:12.130Z,40.35
2023-10-02T21:24:38.587Z,39.92
2023-10-02T21:27:06.872Z,39.72
2023-10-02T21:29:33.444Z,44.17
2023-10-02T21:31:59.864Z,43.90
2023-10-02T21:34:27.527Z,43.22
2023-10-02T21:36:54.022Z,37.72
2023-10-02T21:39:20.421Z,41.70
2023-10-02T21:41:47.278Z,42.28
2023-10-02T21:44:13.873Z,43.75
2023-10-02T21:46:40.422Z,42.17
2023-10-02T21:49:06.952Z,41.15
2023-10-02T21:51:34.421Z,41.33
2023-10-02T21:54:00.936Z,39.97
2023-10-02T21:56:29.109Z,43.05
2023-10-02T21:58:58.888Z,39.53
2023-10-02T22:01:25.582Z,41.42
2023-10-02T22:03:55.473Z,38.90
2023-10-02T22:06:22.913Z,39.88
2023-10-02T22:08:49.960Z,36.70
2023-10-02T22:11:38.823Z,38.58
2023-10-02T22:16:49.020Z,36.45
2023-10-02T22:19:16.969Z,35.13
2023-10-02T22:21:45.579Z,36.13
2023-10-02T22:24:14.808Z,38.80
2023-10-02T22:26:42.094Z,38.95
2023-10-02T22:29:10.259Z,39.60
2023-10-02T22:31:37.464Z,39.42
2023-10-02T22:34:06.835Z,44.67
2023-10-02T22:36:36.438Z,39.38
2023-10-02T22:39:04.331Z,36.90
2023-10-02T22:41:30.979Z,41.38
2023-10-02T22:43:58.558Z,45.28
2023-10-02T22:46:25.895Z,46.75
2023-10-02T22:48:52.392Z,48.50
2023-10-02T22:51:19.342Z,40.58
2023-10-02T22:53:46.127Z,43.53
2023-10-02T22:56:13.853Z,41.28
2023-10-02T22:58:41.501Z,38.95
2023-10-02T23:01:09.715Z,44.75
2023-10-02T23:03:37.166Z,40.50
2023-10-02T23:06:05.806Z,42.45
2023-10-02T23:08:34.760Z,38.15
2023-10-02T23:11:03.838Z,38.90
2023-10-02T23:13:30.833Z,41.90
2023-10-02T23:15:57.572Z,41.28
2023-10-02T23:18:26.443Z,39.08
2023-10-02T23:20:56.330Z,41.42
2023-10-02T23:23:22.968Z,40.45
2023-10-02T23:25:49.533Z,39.03
2023-10-02T23:28:17.551Z,37.40
2023-10-02T23:30:47.290Z,35.67
2023-10-02T23:33:17.359Z,36.75
2023-10-02T23:35:44.686Z,36.65
2023-10-02T23:38:12.820Z,33.85
2023-10-02T23:40:45.592Z,36.58
2023-10-02T23:43:15.481Z,37.10
2023-10-02T23:45:43.352Z,32.20
2023-10-02T23:48:16.083Z,31.45
2023-10-02T23:50:49.014Z,30.25
2023-10-02T23:53:16.713Z,35.30
2023-10-02T23:55:43.507Z,32.00
2023-10-02T23:58:09.960Z,33.40
